sensor_id;sensor_type;location;lat;lon;timestamp;P1;durP1;ratioP1;P2;durP2;ratioP2
3587;SDS011;1808;53.596;9.972;2023-04-03T00:00:55;8.30;;;2.08;;
3587;SDS011;1808;53.596;9.972;2023-04-03T00:03:21;5.18;;;2.15;;
3587;SDS011;1808;53.596;9.972;2023-04-03T00:05:48;6.55;;;1.70;;
3587;SDS011;1808;53.596;9.972;2023-04-03T00:08:16;8.90;;;2.42;;
3587;SDS011;1808;53.596;9.972;2023-04-03T00:10:42;5.97;;;1.85;;
3587;SDS011;1808;53.596;9.972;2023-04-03T00:13:09;7.53;;;2.15;;
3587;SDS011;1808;53.596;9.972;2023-04-03T00:15:35;11.48;;;2.28;;
3587;SDS011;1808;53.596;9.972;2023-04-03T00:18:04;5.00;;;1.80;;
3587;SDS011;1808;53.596;9.972;2023-04-03T00:20:30;4.82;;;2.13;;
3587;SDS011;1808;53.596;9.972;2023-04-03T00:22:56;7.20;;;2.10;;
3587;SDS011;1808;53.596;9.972;2023-04-03T00:25:24;6.07;;;2.10;;
3587;SDS011;1808;53.596;9.972;2023-04-03T00:27:50;8.15;;;1.88;;
3587;SDS011;1808;53.596;9.972;2023-04-03T00:30:17;7.93;;;2.20;;
3587;SDS011;1808;53.596;9.972;2023-04-03T00:32:44;11.38;;;2.47;;
3587;SDS011;1808;53.596;9.972;2023-04-03T00:35:10;6.85;;;2.28;;
3587;SDS011;1808;53.596;9.972;2023-04-03T00:37:36;6.97;;;2.55;;
3587;SDS011;1808;53.596;9.972;2023-04-03T00:40:03;11.18;;;3.15;;
3587;SDS011;1808;53.596;9.972;2023-04-03T00:42:31;7.07;;;2.53;;
3587;SDS011;1808;53.596;9.972;2023-04-03T00:47:42;7.88;;;2.60;;
3587;SDS011;1808;53.596;9.972;2023-04-03T00:50:08;6.95;;;2.10;;
3587;SDS011;1808;53.596;9.972;2023-04-03T00:52:35;8.63;;;1.80;;
3587;SDS011;1808;53.596;9.972;2023-04-03T00:55:04;8.13;;;2.20;;
3587;SDS011;1808;53.596;9.972;2023-04-03T00:57:32;8.48;;;2.38;;
3587;SDS011;1808;53.596;9.972;2023-04-03T01:00:01;8.02;;;2.30;;
3587;SDS011;1808;53.596;9.972;2023-04-03T01:02:29;7.00;;;1.77;;
3587;SDS011;1808;53.596;9.972;2023-04-03T01:04:55;5.78;;;2.22;;
3587;SDS011;1808;53.596;9.972;2023-04-03T01:07:21;8.98;;;2.30;;
3587;SDS011;1808;53.596;9.972;2023-04-03T01:09:49;6.18;;;1.92;;
3587;SDS011;1808;53.596;9.972;2023-04-03T01:12:16;8.38;;;2.35;;
3587;SDS011;1808;53.596;9.972;2023-04-03T01:14:44;6.15;;;1.98;;
3587;SDS011;1808;53.596;9.972;2023-04-03T01:17:27;8.60;;;2.15;;
3587;SDS011;1808;53.596;9.972;2023-04-03T01:19:56;7.60;;;2.10;;
3587;SDS011;1808;53.596;9.972;2023-04-03T01:22:23;10.32;;;2.25;;
3587;SDS011;1808;53.596;9.972;2023-04-03T01:24:52;6.93;;;2.30;;
3587;SDS011;1808;53.596;9.972;2023-04-03T01:27:18;9.50;;;2.25;;
3587;SDS011;1808;53.596;9.972;2023-04-03T01:29:46;4.78;;;2.35;;
3587;SDS011;1808;53.596;9.972;2023-04-03T01:32:13;6.28;;;2.25;;
3587;SDS011;1808;53.596;9.972;2023-04-03T01:34:40;8.15;;;2.70;;
3587;SDS011;1808;53.596;9.972;2023-04-03T01:37:06;8.63;;;3.17;;
3587;SDS011;1808;53.596;9.972;2023-04-03T01:39:32;7.10;;;2.20;;
3587;SDS011;1808;53.596;9.972;2023-04-03T01:41:58;7.40;;;2.45;;
3587;SDS011;1808;53.596;9.972;2023-04-03T01:44:25;6.63;;;2.13;;
3587;SDS011;1808;53.596;9.972;2023-04-03T01:46:51;7.38;;;2.13;;
3587;SDS011;1808;53.596;9.972;2023-04-03T01:49:18;10.35;;;2.45;;
3587;SDS011;1808;53.596;9.972;2023-04-03T01:51:45;11.88;;;2.70;;
3587;SDS011;1808;53.596;9.972;2023-04-03T01:54:11;7.00;;;2.67;;
3587;SDS011;1808;53.596;9.972;2023-04-03T01:56:37;10.10;;;2.67;;
3587;SDS011;1808;53.596;9.972;2023-04-03T01:59:04;9.30;;;2.65;;
3587;SDS011;1808;53.596;9.972;2023-04-03T02:01:30;6.22;;;2.20;;
3587;SDS011;1808;53.596;9.972;2023-04-03T02:03:56;5.10;;;2.33;;
3587;SDS011;1808;53.596;9.972;2023-04-03T02:06:23;9.70;;;2.63;;
3587;SDS011;1808;53.596;9.972;2023-04-03T02:08:50;7.60;;;2.60;;
3587;SDS011;1808;53.596;9.972;2023-04-03T02:11:16;6.63;;;2.40;;
3587;SDS011;1808;53.596;9.972;2023-04-03T02:13:42;6.90;;;2.45;;
3587;SDS011;1808;53.596;9.972;2023-04-03T02:16:09;6.15;;;2.70;;
3587;SDS011;1808;53.596;9.972;2023-04-03T02:18:36;7.03;;;2.40;;
3587;SDS011;1808;53.596;9.972;2023-04-03T02:21:02;6.68;;;2.42;;
3587;SDS011;1808;53.596;9.972;2023-04-03T02:23:29;7.35;;;2.80;;
3587;SDS011;1808;53.596;9.972;2023-04-03T02:26:02;8.88;;;2.75;;
3587;SDS011;1808;53.596;9.972;2023-04-03T02:28:28;6.47;;;1.88;;
3587;SDS011;1808;53.596;9.972;2023-04-03T02:30:55;5.93;;;2.42;;
3587;SDS011;1808;53.596;9.972;2023-04-03T02:33:21;5.30;;;2.13;;
3587;SDS011;1808;53.596;9.972;2023-04-03T02:35:47;13.18;;;3.63;;
3587;SDS011;1808;53.596;9.972;2023-04-03T02:38:18;8.98;;;2.85;;
3587;SDS011;1808;53.596;9.972;2023-04-03T02:40:45;9.18;;;2.50;;
3587;SDS011;1808;53.596;9.972;2023-04-03T02:43:11;7.30;;;2.30;;
3587;SDS011;1808;53.596;9.972;2023-04-03T02:45:38;7.55;;;2.47;;
3587;SDS011;1808;53.596;9.972;2023-04-03T02:48:04;5.68;;;2.28;;
3587;SDS011;1808;53.596;9.972;2023-04-03T02:50:31;11.15;;;2.92;;
3587;SDS011;1808;53.596;9.972;2023-04-03T02:52:57;9.30;;;2.30;;
3587;SDS011;1808;53.596;9.972;2023-04-03T02:55:23;5.75;;;2.10;;
3587;SDS011;1808;53.596;9.972;2023-04-03T02:57:50;5.70;;;2.47;;
3587;SDS011;1808;53.596;9.972;2023-04-03T03:00:17;7.38;;;2.55;;
3587;SDS011;1808;53.596;9.972;2023-04-03T03:02:43;4.97;;;1.80;;
3587;SDS011;1808;53.596;9.972;2023-04-03T03:05:09;7.90;;;2.30;;
3587;SDS011;1808;53.596;9.972;2023-04-03T03:07:36;13.25;;;2.42;;
3587;SDS011;1808;53.596;9.972;2023-04-03T03:10:02;6.90;;;2.22;;
3587;SDS011;1808;53.596;9.972;2023-04-03T03:12:28;8.25;;;2.30;;
3587;SDS011;1808;53.596;9.972;2023-04-03T03:14:56;6.38;;;2.40;;
3587;SDS011;1808;53.596;9.972;2023-04-03T03:17:22;7.97;;;2.70;;
3587;SDS011;1808;53.596;9.972;2023-04-03T03:19:48;4.40;;;2.00;;
3587;SDS011;1808;53.596;9.972;2023-04-03T03:22:15;6.22;;;2.83;;
3587;SDS011;1808;53.596;9.972;2023-04-03T03:24:42;10.95;;;2.80;;
3587;SDS011;1808;53.596;9.972;2023-04-03T03:27:08;7.88;;;2.80;;
3587;SDS011;1808;53.596;9.972;2023-04-03T03:29:34;6.93;;;2.33;;
3587;SDS011;1808;53.596;9.972;2023-04-03T03:32:02;5.65;;;2.35;;
3587;SDS011;1808;53.596;9.972;2023-04-03T03:34:28;7.60;;;2.22;;
3587;SDS011;1808;53.596;9.972;2023-04-03T03:36:54;7.40;;;3.00;;
3587;SDS011;1808;53.596;9.972;2023-04-03T03:39:20;6.15;;;2.50;;
3587;SDS011;1808;53.596;9.972;2023-04-03T03:41:46;7.80;;;2.47;;
3587;SDS011;1808;53.596;9.972;2023-04-03T03:44:14;8.60;;;2.47;;
3587;SDS011;1808;53.596;9.972;2023-04-03T03:46:40;7.15;;;2.28;;
3587;SDS011;1808;53.596;9.972;2023-04-03T03:49:08;5.97;;;2.13;;
3587;SDS011;1808;53.596;9.972;2023-04-03T03:51:34;9.70;;;2.35;;
3587;SDS011;1808;53.596;9.972;2023-04-03T03:54:01;7.78;;;2.33;;
3587;SDS011;1808;53.596;9.972;2023-04-03T03:56:27;5.63;;;2.60;;
3587;SDS011;1808;53.596;9.972;2023-04-03T03:58:53;10.13;;;2.83;;
3587;SDS011;1808;53.596;9.972;2023-04-03T04:01:21;6.53;;;2.33;;
3587;SDS011;1808;53.596;9.972;2023-04-03T04:03:47;7.32;;;2.00;;
3587;SDS011;1808;53.596;9.972;2023-04-03T04:06:15;6.13;;;2.35;;
3587;SDS011;1808;53.596;9.972;2023-04-03T04:08:41;5.68;;;2.38;;
3587;SDS011;1808;53.596;9.972;2023-04-03T04:11:07;5.47;;;2.30;;
3587;SDS011;1808;53.596;9.972;2023-04-03T04:13:34;4.25;;;2.38;;
3587;SDS011;1808;53.596;9.972;2023-04-03T04:16:00;7.95;;;2.67;;
3587;SDS011;1808;53.596;9.972;2023-04-03T04:18:26;8.02;;;2.88;;
3587;SDS011;1808;53.596;9.972;2023-04-03T04:20:53;10.02;;;2.63;;
3587;SDS011;1808;53.596;9.972;2023-04-03T04:23:20;8.40;;;2.72;;
3587;SDS011;1808;53.596;9.972;2023-04-03T04:25:46;5.05;;;2.47;;
3587;SDS011;1808;53.596;9.972;2023-04-03T04:28:13;11.98;;;3.33;;
3587;SDS011;1808;53.596;9.972;2023-04-03T04:30:39;8.05;;;3.20;;
3587;SDS011;1808;53.596;9.972;2023-04-03T04:33:06;7.72;;;3.17;;
3587;SDS011;1808;53.596;9.972;2023-04-03T04:35:32;9.60;;;3.20;;
3587;SDS011;1808;53.596;9.972;2023-04-03T04:37:58;8.38;;;3.15;;
3587;SDS011;1808;53.596;9.972;2023-04-03T04:40:26;8.05;;;2.92;;
3587;SDS011;1808;53.596;9.972;2023-04-03T04:42:52;8.85;;;3.72;;
3587;SDS011;1808;53.596;9.972;2023-04-03T04:45:18;8.23;;;3.90;;
3587;SDS011;1808;53.596;9.972;2023-04-03T04:47:44;10.85;;;4.50;;
3587;SDS011;1808;53.596;9.972;2023-04-03T04:50:11;10.73;;;4.60;;
3587;SDS011;1808;53.596;9.972;2023-04-03T04:52:37;10.43;;;4.88;;
3587;SDS011;1808;53.596;9.972;2023-04-03T04:55:04;15.68;;;4.60;;
3587;SDS011;1808;53.596;9.972;2023-04-03T04:57:32;10.68;;;4.18;;
3587;SDS011;1808;53.596;9.972;2023-04-03T04:59:58;8.52;;;4.50;;
3587;SDS011;1808;53.596;9.972;2023-04-03T05:02:24;11.10;;;5.35;;
3587;SDS011;1808;53.596;9.972;2023-04-03T05:04:50;9.65;;;4.20;;
3587;SDS011;1808;53.596;9.972;2023-04-03T05:07:17;12.10;;;4.10;;
3587;SDS011;1808;53.596;9.972;2023-04-03T05:09:43;11.00;;;5.18;;
3587;SDS011;1808;53.596;9.972;2023-04-03T05:12:09;8.05;;;4.63;;
3587;SDS011;1808;53.596;9.972;2023-04-03T05:14:37;11.65;;;4.38;;
3587;SDS011;1808;53.596;9.972;2023-04-03T05:17:03;9.02;;;4.30;;
3587;SDS011;1808;53.596;9.972;2023-04-03T05:19:29;9.50;;;4.45;;
3587;SDS011;1808;53.596;9.972;2023-04-03T05:21:56;12.52;;;4.07;;
3587;SDS011;1808;53.596;9.972;2023-04-03T05:24:22;8.23;;;3.88;;
3587;SDS011;1808;53.596;9.972;2023-04-03T05:26:48;9.40;;;3.80;;
3587;SDS011;1808;53.596;9.972;2023-04-03T05:29:14;12.48;;;3.97;;
3587;SDS011;1808;53.596;9.972;2023-04-03T05:31:42;7.32;;;3.80;;
3587;SDS011;1808;53.596;9.972;2023-04-03T05:34:08;8.13;;;3.33;;
3587;SDS011;1808;53.596;9.972;2023-04-03T05:36:34;13.48;;;4.60;;
3587;SDS011;1808;53.596;9.972;2023-04-03T05:39:00;10.63;;;4.38;;
3587;SDS011;1808;53.596;9.972;2023-04-03T05:41:26;10.05;;;4.18;;
3587;SDS011;1808;53.596;9.972;2023-04-03T05:43:53;8.18;;;4.20;;
3587;SDS011;1808;53.596;9.972;2023-04-03T05:46:19;10.50;;;3.38;;
3587;SDS011;1808;53.596;9.972;2023-04-03T05:48:47;8.32;;;3.78;;
3587;SDS011;1808;53.596;9.972;2023-04-03T05:51:14;11.23;;;4.22;;
3587;SDS011;1808;53.596;9.972;2023-04-03T05:53:41;9.65;;;3.63;;
3587;SDS011;1808;53.596;9.972;2023-04-03T05:56:07;9.93;;;4.05;;
3587;SDS011;1808;53.596;9.972;2023-04-03T05:58:33;10.07;;;4.22;;
3587;SDS011;1808;53.596;9.972;2023-04-03T06:00:59;6.95;;;3.75;;
3587;SDS011;1808;53.596;9.972;2023-04-03T06:03:27;10.48;;;3.50;;
3587;SDS011;1808;53.596;9.972;2023-04-03T06:05:54;10.88;;;4.40;;
3587;SDS011;1808;53.596;9.972;2023-04-03T06:08:21;14.40;;;4.20;;
3587;SDS011;1808;53.596;9.972;2023-04-03T06:10:48;12.40;;;4.07;;
3587;SDS011;1808;53.596;9.972;2023-04-03T06:13:15;7.70;;;3.95;;
3587;SDS011;1808;53.596;9.972;2023-04-03T06:15:42;12.23;;;3.15;;
3587;SDS011;1808;53.596;9.972;2023-04-03T06:18:08;11.45;;;3.75;;
3587;SDS011;1808;53.596;9.972;2023-04-03T06:20:34;9.68;;;3.58;;
3587;SDS011;1808;53.596;9.972;2023-04-03T06:23:02;10.85;;;3.45;;
3587;SDS011;1808;53.596;9.972;2023-04-03T06:25:28;10.05;;;3.78;;
3587;SDS011;1808;53.596;9.972;2023-04-03T06:27:54;8.75;;;3.22;;
3587;SDS011;1808;53.596;9.972;2023-04-03T06:30:21;10.07;;;3.03;;
3587;SDS011;1808;53.596;9.972;2023-04-03T06:32:47;13.50;;;3.58;;
3587;SDS011;1808;53.596;9.972;2023-04-03T06:35:13;13.63;;;3.95;;
3587;SDS011;1808;53.596;9.972;2023-04-03T06:37:40;10.05;;;3.63;;
3587;SDS011;1808;53.596;9.972;2023-04-03T06:40:09;9.07;;;3.10;;
3587;SDS011;1808;53.596;9.972;2023-04-03T06:42:41;8.57;;;2.90;;
3587;SDS011;1808;53.596;9.972;2023-04-03T06:45:07;7.50;;;2.78;;
3587;SDS011;1808;53.596;9.972;2023-04-03T06:47:36;10.02;;;2.50;;
3587;SDS011;1808;53.596;9.972;2023-04-03T06:50:02;7.07;;;2.80;;
3587;SDS011;1808;53.596;9.972;2023-04-03T06:52:28;6.22;;;2.50;;
3587;SDS011;1808;53.596;9.972;2023-04-03T06:54:55;5.82;;;2.03;;
3587;SDS011;1808;53.596;9.972;2023-04-03T06:57:24;7.22;;;2.50;;
3587;SDS011;1808;53.596;9.972;2023-04-03T06:59:50;7.65;;;2.70;;
3587;SDS011;1808;53.596;9.972;2023-04-03T07:02:16;9.25;;;2.67;;
3587;SDS011;1808;53.596;9.972;2023-04-03T07:04:42;8.02;;;2.38;;
3587;SDS011;1808;53.596;9.972;2023-04-03T07:07:09;5.55;;;2.22;;
3587;SDS011;1808;53.596;9.972;2023-04-03T07:09:35;5.38;;;2.45;;
3587;SDS011;1808;53.596;9.972;2023-04-03T07:12:02;7.50;;;2.15;;
3587;SDS011;1808;53.596;9.972;2023-04-03T07:14:29;8.63;;;1.88;;
3587;SDS011;1808;53.596;9.972;2023-04-03T07:16:55;5.72;;;1.52;;
3587;SDS011;1808;53.596;9.972;2023-04-03T07:19:21;5.72;;;1.80;;
3587;SDS011;1808;53.596;9.972;2023-04-03T07:21:49;9.43;;;2.10;;
3587;SDS011;1808;53.596;9.972;2023-04-03T07:24:15;6.47;;;1.65;;
3587;SDS011;1808;53.596;9.972;2023-04-03T07:26:42;7.72;;;2.00;;
3587;SDS011;1808;53.596;9.972;2023-04-03T07:29:10;7.78;;;1.90;;
3587;SDS011;1808;53.596;9.972;2023-04-03T07:31:40;6.25;;;1.60;;
3587;SDS011;1808;53.596;9.972;2023-04-03T07:34:06;6.97;;;1.50;;
3587;SDS011;1808;53.596;9.972;2023-04-03T07:36:32;3.40;;;1.05;;
3587;SDS011;1808;53.596;9.972;2023-04-03T07:38:58;2.95;;;0.88;;
3587;SDS011;1808;53.596;9.972;2023-04-03T07:41:25;2.08;;;0.93;;
3587;SDS011;1808;53.596;9.972;2023-04-03T07:43:51;5.68;;;1.38;;
3587;SDS011;1808;53.596;9.972;2023-04-03T07:46:17;5.18;;;1.83;;
3587;SDS011;1808;53.596;9.972;2023-04-03T07:48:46;4.28;;;1.48;;
3587;SDS011;1808;53.596;9.972;2023-04-03T07:51:12;3.67;;;1.48;;
3587;SDS011;1808;53.596;9.972;2023-04-03T07:53:39;5.78;;;1.20;;
3587;SDS011;1808;53.596;9.972;2023-04-03T07:56:06;4.57;;;1.27;;
3587;SDS011;1808;53.596;9.972;2023-04-03T07:58:32;2.83;;;0.80;;
3587;SDS011;1808;53.596;9.972;2023-04-03T08:00:59;4.10;;;0.88;;
3587;SDS011;1808;53.596;9.972;2023-04-03T08:03:25;3.55;;;1.42;;
3587;SDS011;1808;53.596;9.972;2023-04-03T08:05:53;5.53;;;0.88;;
3587;SDS011;1808;53.596;9.972;2023-04-03T08:08:19;5.68;;;1.17;;
3587;SDS011;1808;53.596;9.972;2023-04-03T08:10:48;5.75;;;1.08;;
3587;SDS011;1808;53.596;9.972;2023-04-03T08:13:14;4.40;;;1.15;;
3587;SDS011;1808;53.596;9.972;2023-04-03T08:15:40;5.75;;;1.30;;
3587;SDS011;1808;53.596;9.972;2023-04-03T08:18:07;4.88;;;1.20;;
3587;SDS011;1808;53.596;9.972;2023-04-03T08:20:33;6.00;;;0.80;;
3587;SDS011;1808;53.596;9.972;2023-04-03T08:23:01;4.25;;;1.20;;
3587;SDS011;1808;53.596;9.972;2023-04-03T08:25:27;5.40;;;1.17;;
3587;SDS011;1808;53.596;9.972;2023-04-03T08:27:54;3.63;;;0.90;;
3587;SDS011;1808;53.596;9.972;2023-04-03T08:30:20;5.30;;;1.45;;
3587;SDS011;1808;53.596;9.972;2023-04-03T08:32:47;6.63;;;0.90;;
3587;SDS011;1808;53.596;9.972;2023-04-03T08:35:13;4.30;;;0.90;;
3587;SDS011;1808;53.596;9.972;2023-04-03T08:37:39;7.07;;;1.98;;
3587;SDS011;1808;53.596;9.972;2023-04-03T08:40:10;8.63;;;1.73;;
3587;SDS011;1808;53.596;9.972;2023-04-03T08:45:05;4.97;;;1.20;;
3587;SDS011;1808;53.596;9.972;2023-04-03T08:47:36;5.47;;;1.10;;
3587;SDS011;1808;53.596;9.972;2023-04-03T08:50:04;5.75;;;0.90;;
3587;SDS011;1808;53.596;9.972;2023-04-03T08:52:32;5.25;;;1.25;;
3587;SDS011;1808;53.596;9.972;2023-04-03T08:55:00;2.65;;;0.85;;
3587;SDS011;1808;53.596;9.972;2023-04-03T08:57:30;2.70;;;0.80;;
3587;SDS011;1808;53.596;9.972;2023-04-03T08:59:58;3.75;;;1.00;;
3587;SDS011;1808;53.596;9.972;2023-04-03T09:02:27;3.60;;;0.90;;
3587;SDS011;1808;53.596;9.972;2023-04-03T09:04:55;3.47;;;1.08;;
3587;SDS011;1808;53.596;9.972;2023-04-03T09:07:22;4.47;;;1.00;;
3587;SDS011;1808;53.596;9.972;2023-04-03T09:09:51;3.30;;;1.02;;
3587;SDS011;1808;53.596;9.972;2023-04-03T09:12:19;2.78;;;1.02;;
3587;SDS011;1808;53.596;9.972;2023-04-03T09:14:52;3.58;;;0.90;;
3587;SDS011;1808;53.596;9.972;2023-04-03T09:17:21;6.15;;;1.02;;
3587;SDS011;1808;53.596;9.972;2023-04-03T09:19:54;6.13;;;1.00;;
3587;SDS011;1808;53.596;9.972;2023-04-03T09:22:23;5.20;;;1.30;;
3587;SDS011;1808;53.596;9.972;2023-04-03T09:24:49;4.53;;;1.25;;
3587;SDS011;1808;53.596;9.972;2023-04-03T09:27:17;9.23;;;1.40;;
3587;SDS011;1808;53.596;9.972;2023-04-03T09:29:44;3.40;;;1.17;;
3587;SDS011;1808;53.596;9.972;2023-04-03T09:32:21;4.05;;;1.00;;
3587;SDS011;1808;53.596;9.972;2023-04-03T09:34:48;3.80;;;1.00;;
3587;SDS011;1808;53.596;9.972;2023-04-03T09:37:32;5.15;;;1.25;;
3587;SDS011;1808;53.596;9.972;2023-04-03T09:40:00;5.32;;;1.08;;
3587;SDS011;1808;53.596;9.972;2023-04-03T09:42:26;3.92;;;1.00;;
3587;SDS011;1808;53.596;9.972;2023-04-03T09:44:54;3.88;;;0.85;;
3587;SDS011;1808;53.596;9.972;2023-04-03T09:47:24;3.25;;;0.82;;
3587;SDS011;1808;53.596;9.972;2023-04-03T09:49:52;3.45;;;0.90;;
3587;SDS011;1808;53.596;9.972;2023-04-03T09:52:34;5.22;;;1.00;;
3587;SDS011;1808;53.596;9.972;2023-04-03T09:55:05;2.08;;;0.70;;
3587;SDS011;1808;53.596;9.972;2023-04-03T09:57:32;3.92;;;0.70;;
3587;SDS011;1808;53.596;9.972;2023-04-03T09:59:59;4.43;;;0.88;;
3587;SDS011;1808;53.596;9.972;2023-04-03T10:02:35;4.05;;;0.70;;
3587;SDS011;1808;53.596;9.972;2023-04-03T10:05:03;3.47;;;1.00;;
3587;SDS011;1808;53.596;9.972;2023-04-03T10:07:31;3.75;;;1.13;;
3587;SDS011;1808;53.596;9.972;2023-04-03T10:09:58;7.10;;;2.03;;
3587;SDS011;1808;53.596;9.972;2023-04-03T10:12:25;2.97;;;0.93;;
3587;SDS011;1808;53.596;9.972;2023-04-03T10:14:54;2.95;;;0.65;;
3587;SDS011;1808;53.596;9.972;2023-04-03T10:17:22;4.95;;;0.70;;
3587;SDS011;1808;53.596;9.972;2023-04-03T10:19:53;3.03;;;0.90;;
3587;SDS011;1808;53.596;9.972;2023-04-03T10:22:24;2.33;;;0.70;;
3587;SDS011;1808;53.596;9.972;2023-04-03T10:27:22;3.10;;;0.90;;
3587;SDS011;1808;53.596;9.972;2023-04-03T10:29:55;2.33;;;0.75;;
3587;SDS011;1808;53.596;9.972;2023-04-03T10:35:17;4.25;;;0.82;;
3587;SDS011;1808;53.596;9.972;2023-04-03T10:37:51;2.88;;;0.75;;
3587;SDS011;1808;53.596;9.972;2023-04-03T10:40:23;3.65;;;1.17;;
3587;SDS011;1808;53.596;9.972;2023-04-03T10:42:51;3.20;;;0.88;;
3587;SDS011;1808;53.596;9.972;2023-04-03T10:45:21;4.50;;;1.10;;
3587;SDS011;1808;53.596;9.972;2023-04-03T10:47:52;3.28;;;1.00;;
3587;SDS011;1808;53.596;9.972;2023-04-03T10:50:25;3.00;;;0.70;;
3587;SDS011;1808;53.596;9.972;2023-04-03T10:52:54;6.30;;;1.20;;
3587;SDS011;1808;53.596;9.972;2023-04-03T10:55:24;4.30;;;0.85;;
3587;SDS011;1808;53.596;9.972;2023-04-03T10:57:54;3.65;;;0.85;;
3587;SDS011;1808;53.596;9.972;2023-04-03T11:00:22;3.05;;;1.00;;
3587;SDS011;1808;53.596;9.972;2023-04-03T11:02:52;3.30;;;1.00;;
3587;SDS011;1808;53.596;9.972;2023-04-03T11:05:22;2.13;;;0.70;;
3587;SDS011;1808;53.596;9.972;2023-04-03T11:07:53;4.57;;;1.80;;
3587;SDS011;1808;53.596;9.972;2023-04-03T11:10:22;3.50;;;1.20;;
3587;SDS011;1808;53.596;9.972;2023-04-03T11:12:51;2.65;;;1.00;;
3587;SDS011;1808;53.596;9.972;2023-04-03T11:15:18;3.92;;;1.38;;
3587;SDS011;1808;53.596;9.972;2023-04-03T11:17:46;5.20;;;1.40;;
3587;SDS011;1808;53.596;9.972;2023-04-03T11:20:17;5.45;;;1.60;;
3587;SDS011;1808;53.596;9.972;2023-04-03T11:22:45;4.22;;;1.13;;
3587;SDS011;1808;53.596;9.972;2023-04-03T11:25:18;3.38;;;1.60;;
3587;SDS011;1808;53.596;9.972;2023-04-03T11:27:48;4.22;;;1.00;;
3587;SDS011;1808;53.596;9.972;2023-04-03T11:30:17;11.80;;;1.20;;
3587;SDS011;1808;53.596;9.972;2023-04-03T11:32:56;6.32;;;1.08;;
3587;SDS011;1808;53.596;9.972;2023-04-03T11:35:25;2.70;;;1.10;;
3587;SDS011;1808;53.596;9.972;2023-04-03T11:37:52;5.57;;;1.02;;
3587;SDS011;1808;53.596;9.972;2023-04-03T11:40:22;2.60;;;0.75;;
3587;SDS011;1808;53.596;9.972;2023-04-03T11:42:52;3.53;;;1.00;;
3587;SDS011;1808;53.596;9.972;2023-04-03T11:45:24;3.83;;;1.30;;
3587;SDS011;1808;53.596;9.972;2023-04-03T11:47:53;4.22;;;1.27;;
3587;SDS011;1808;53.596;9.972;2023-04-03T11:55:53;3.17;;;0.80;;
3587;SDS011;1808;53.596;9.972;2023-04-03T11:58:21;6.50;;;1.20;;
3587;SDS011;1808;53.596;9.972;2023-04-03T12:00:51;3.50;;;1.23;;
3587;SDS011;1808;53.596;9.972;2023-04-03T12:03:31;2.70;;;0.68;;
3587;SDS011;1808;53.596;9.972;2023-04-03T12:06:25;3.22;;;0.98;;
3587;SDS011;1808;53.596;9.972;2023-04-03T12:08:44;1.95;;;0.60;;
3587;SDS011;1808;53.596;9.972;2023-04-03T12:11:19;4.53;;;1.33;;
3587;SDS011;1808;53.596;9.972;2023-04-03T12:14:03;5.80;;;0.90;;
3587;SDS011;1808;53.596;9.972;2023-04-03T12:16:30;1.70;;;0.60;;
3587;SDS011;1808;53.596;9.972;2023-04-03T12:18:59;2.92;;;1.02;;
3587;SDS011;1808;53.596;9.972;2023-04-03T12:24:29;3.58;;;1.38;;
3587;SDS011;1808;53.596;9.972;2023-04-03T12:27:04;3.08;;;1.13;;
3587;SDS011;1808;53.596;9.972;2023-04-03T12:29:33;2.97;;;0.90;;
3587;SDS011;1808;53.596;9.972;2023-04-03T12:32:04;3.30;;;1.05;;
3587;SDS011;1808;53.596;9.972;2023-04-03T12:37:00;2.90;;;0.95;;
3587;SDS011;1808;53.596;9.972;2023-04-03T12:39:43;3.83;;;1.42;;
3587;SDS011;1808;53.596;9.972;2023-04-03T12:42:18;1.95;;;0.80;;
3587;SDS011;1808;53.596;9.972;2023-04-03T12:44:49;2.55;;;0.75;;
3587;SDS011;1808;53.596;9.972;2023-04-03T12:47:25;5.28;;;1.02;;
3587;SDS011;1808;53.596;9.972;2023-04-03T12:49:53;3.95;;;1.15;;
3587;SDS011;1808;53.596;9.972;2023-04-03T12:52:25;5.03;;;1.00;;
3587;SDS011;1808;53.596;9.972;2023-04-03T12:54:54;4.15;;;0.93;;
3587;SDS011;1808;53.596;9.972;2023-04-03T12:57:24;4.13;;;0.70;;
3587;SDS011;1808;53.596;9.972;2023-04-03T12:59:51;3.65;;;1.20;;
3587;SDS011;1808;53.596;9.972;2023-04-03T13:02:20;4.70;;;1.23;;
3587;SDS011;1808;53.596;9.972;2023-04-03T13:04:48;3.13;;;1.20;;
3587;SDS011;1808;53.596;9.972;2023-04-03T13:07:19;3.10;;;1.00;;
3587;SDS011;1808;53.596;9.972;2023-04-03T13:09:47;3.03;;;1.00;;
3587;SDS011;1808;53.596;9.972;2023-04-03T13:12:20;4.53;;;1.10;;
3587;SDS011;1808;53.596;9.972;2023-04-03T13:14:52;3.83;;;1.13;;
3587;SDS011;1808;53.596;9.972;2023-04-03T13:17:19;4.93;;;1.20;;
3587;SDS011;1808;53.596;9.972;2023-04-03T13:19:46;4.47;;;0.77;;
3587;SDS011;1808;53.596;9.972;2023-04-03T13:22:17;1.77;;;0.80;;
3587;SDS011;1808;53.596;9.972;2023-04-03T13:24:45;3.83;;;0.90;;
3587;SDS011;1808;53.596;9.972;2023-04-03T13:27:12;1.15;;;0.60;;
3587;SDS011;1808;53.596;9.972;2023-04-03T13:29:39;3.65;;;0.80;;
3587;SDS011;1808;53.596;9.972;2023-04-03T13:32:07;6.05;;;1.20;;
3587;SDS011;1808;53.596;9.972;2023-04-03T13:34:41;2.15;;;0.70;;
3587;SDS011;1808;53.596;9.972;2023-04-03T13:37:11;2.83;;;0.80;;
3587;SDS011;1808;53.596;9.972;2023-04-03T13:39:44;3.55;;;1.05;;
3587;SDS011;1808;53.596;9.972;2023-04-03T13:42:14;1.83;;;0.82;;
3587;SDS011;1808;53.596;9.972;2023-04-03T13:44:42;3.40;;;1.08;;
3587;SDS011;1808;53.596;9.972;2023-04-03T13:47:19;2.38;;;0.75;;
3587;SDS011;1808;53.596;9.972;2023-04-03T13:49:58;1.90;;;0.70;;
3587;SDS011;1808;53.596;9.972;2023-04-03T13:52:26;3.13;;;0.73;;
3587;SDS011;1808;53.596;9.972;2023-04-03T13:54:54;5.50;;;1.05;;
3587;SDS011;1808;53.596;9.972;2023-04-03T13:57:21;6.10;;;1.27;;
3587;SDS011;1808;53.596;9.972;2023-04-03T13:59:47;4.35;;;0.80;;
3587;SDS011;1808;53.596;9.972;2023-04-03T14:02:17;2.40;;;0.85;;
3587;SDS011;1808;53.596;9.972;2023-04-03T14:04:47;1.40;;;0.80;;
3587;SDS011;1808;53.596;9.972;2023-04-03T14:07:14;4.40;;;1.00;;
3587;SDS011;1808;53.596;9.972;2023-04-03T14:09:41;2.88;;;0.98;;
3587;SDS011;1808;53.596;9.972;2023-04-03T14:12:08;3.28;;;1.02;;
3587;SDS011;1808;53.596;9.972;2023-04-03T14:14:38;2.15;;;0.88;;
3587;SDS011;1808;53.596;9.972;2023-04-03T14:17:10;5.43;;;1.00;;
3587;SDS011;1808;53.596;9.972;2023-04-03T14:19:38;3.70;;;1.23;;
3587;SDS011;1808;53.596;9.972;2023-04-03T14:22:13;5.05;;;1.00;;
3587;SDS011;1808;53.596;9.972;2023-04-03T14:24:39;3.03;;;1.10;;
3587;SDS011;1808;53.596;9.972;2023-04-03T14:27:08;2.33;;;0.82;;
3587;SDS011;1808;53.596;9.972;2023-04-03T14:29:38;5.93;;;1.10;;
3587;SDS011;1808;53.596;9.972;2023-04-03T14:32:04;8.32;;;1.30;;
3587;SDS011;1808;53.596;9.972;2023-04-03T14:34:31;5.40;;;1.10;;
3587;SDS011;1808;53.596;9.972;2023-04-03T14:36:57;3.17;;;1.10;;
3587;SDS011;1808;53.596;9.972;2023-04-03T14:39:25;2.30;;;0.90;;
3587;SDS011;1808;53.596;9.972;2023-04-03T14:41:51;3.65;;;0.90;;
3587;SDS011;1808;53.596;9.972;2023-04-03T14:44:17;4.20;;;1.20;;
3587;SDS011;1808;53.596;9.972;2023-04-03T14:46:44;1.90;;;0.70;;
3587;SDS011;1808;53.596;9.972;2023-04-03T14:49:12;4.18;;;0.85;;
3587;SDS011;1808;53.596;9.972;2023-04-03T14:51:40;5.10;;;1.33;;
3587;SDS011;1808;53.596;9.972;2023-04-03T14:54:09;4.28;;;0.90;;
3587;SDS011;1808;53.596;9.972;2023-04-03T14:56:38;4.68;;;1.00;;
3587;SDS011;1808;53.596;9.972;2023-04-03T14:59:04;5.82;;;1.58;;
3587;SDS011;1808;53.596;9.972;2023-04-03T15:01:31;3.25;;;1.10;;
3587;SDS011;1808;53.596;9.972;2023-04-03T15:03:57;2.33;;;1.00;;
3587;SDS011;1808;53.596;9.972;2023-04-03T15:06:23;3.95;;;1.20;;
3587;SDS011;1808;53.596;9.972;2023-04-03T15:08:51;2.92;;;1.10;;
3587;SDS011;1808;53.596;9.972;2023-04-03T15:11:17;4.15;;;1.00;;
3587;SDS011;1808;53.596;9.972;2023-04-03T15:13:45;2.88;;;0.80;;
3587;SDS011;1808;53.596;9.972;2023-04-03T15:16:12;2.63;;;0.80;;
3587;SDS011;1808;53.596;9.972;2023-04-03T15:18:40;2.17;;;0.90;;
3587;SDS011;1808;53.596;9.972;2023-04-03T15:21:06;3.53;;;1.10;;
3587;SDS011;1808;53.596;9.972;2023-04-03T15:23:33;4.00;;;1.05;;
3587;SDS011;1808;53.596;9.972;2023-04-03T15:25:59;4.45;;;1.25;;
3587;SDS011;1808;53.596;9.972;2023-04-03T15:28:27;6.72;;;1.70;;
3587;SDS011;1808;53.596;9.972;2023-04-03T15:30:55;3.65;;;1.33;;
3587;SDS011;1808;53.596;9.972;2023-04-03T15:33:21;6.22;;;1.55;;
3587;SDS011;1808;53.596;9.972;2023-04-03T15:35:48;4.13;;;1.40;;
3587;SDS011;1808;53.596;9.972;2023-04-03T15:38:14;2.85;;;1.02;;
3587;SDS011;1808;53.596;9.972;2023-04-03T15:40:40;4.97;;;1.08;;